Chapel Hill, NC (27514)

01:17 EDT le 25 mai 2015 (GMT -0400)
Cosgrove Hill | | Change Station
CLOSE
Current Station
Stations météorologiques personnelles
Location: Chapel Hill, NC
Altitude: 325 ft
Stations météo à proximité

Alt. 325 ft 35.95 °N, 79.02 °W | Updated 18 seconds ago

Clear
Ciel dégagé
64.8 ° F
Paraît 64.8 ° F
N
0.0
Vent Variable Vent de ONO
Gusts 0.0 mph

Aujourd'hui
Haut(e) -- | Bas -- ° F
--% Risque de précip.
Hier
Haut(e) -- | Bas -- ° F
Precip. -- pouce
6:04 AM 8:22 PM
Lune montante, 45% visible
Pression 30.33 pouce
Visibilité 10.0 Miles terrestres
Nuages Ciel dégagé
Point de rosée 60 ° F
Humidité 83%
Précipitations 0.00 pouce
Profondeur de la couche neigeuse Non disponible.
UV 0 sur 12
Pollen 7.40 sur 12
Qualité de l'air Non disponible.
Flu Activity No Activity
METAR KIGX 250456Z AUTO 00000KT 10SM CLR 19/12 A3035 RMK AO2 SLP270 T01890122 402830117 TSNO $

More Conditions Fewer Conditions

Pression 30.33 pouce
Visibilité 10.0 Miles terrestres
Nuages Ciel dégagé
Point de rosée 60 ° F
Humidité 83%
Précipitations 0.00 pouce
Profondeur de la couche neigeuse Non disponible.
UV 0 sur 12
Pollen 7.40 sur 12
Qualité de l'air Non disponible.
Flu Activity No Activity
METAR KIGX 250456Z AUTO 00000KT 10SM CLR 19/12 A3035 RMK AO2 SLP270 T01890122 402830117 TSNO $

More Conditions Fewer Conditions

10-Day Weather Forecast

Almanac

Astronomie

May. 25, 2015 Lever Coucher
Temps réel
Crépuscule civil
Crépuscule nautique
Crépuscule astronomique
Lune
Durée de lumière visible
Longueur du jour
Tomorrow will be .
, % of the Moon is Illuminated

Extrêmes aujourd'hui

State Highs State Lows

Community

WunderPhotos

Upload Photos

1,823,956 Photos téléchargées !

WunderBlogs® & News

Nearby

Qualité de l'air

  Qualité de l'air Indice de la qualité de l'air Polluant
Not available.

Épaisseur de neige

Station Depth Altitude

Activité sismique

Ville Distance Mag. Time & Date
Minimum magnitude displayed is 2.5.

Températures des eaux côtières

Lieu Température

Stations

Stations météo à proximité

Emplacement de la station Température Refroidissement éolien Point de rosée Humidité Vent Precip. Alt. Mise à jour Type